Home   Weather   India   Farrukhnagar   Past weeks
Flag for India

Past Weather in Farrukhnagar, Haryana, India — Yesterday and Last 2 Weeks

Currently: 63 °F. Fog. (Weather station: New Delhi Palam Airport, India). See more current weather

Past Weather in Farrukhnagar — Graph

°F

Farrukhnagar Temperature Yesterday

Maximum temperature yesterday: 64 °F (at 2:00 pm)
Minimum temperature yesterday: 54 °F (at 4:30 am)
Average temperature yesterday: 58 °F

High & Low Weather Summary for the Past Weeks

 TemperatureHumidityPressure
High75 °F (Jan 23, 1:00 pm)100% (Jan 21, 6:30 am)30.18 "Hg (Jan 21, 6:30 am)
Low41 °F (Jan 28, 6:30 am)21% (Jan 17, 3:00 pm)29.89 "Hg (Jan 29, 3:30 am)
Average58 °F74%30.04 "Hg
* Reported Jan 16 3:30 pm — Jan 31 3:30 pm, Farrukhnagar. Weather by CustomWeather, © 2023

Note: Actual official high and low records may vary slightly from our data, if they occured in-between our weather recording intervals... More about our weather records

Farrukhnagar Weather History for the Previous 24 Hours

Scroll right to see more
 ConditionsComfort  
Time TempWeatherWind HumidityBarometerVisibility
3:30 pm
Tue, Jan 31
63 °FFog.7 mph83%30.07 "Hg1 mi
3:00 pm63 °FFog.7 mph88%30.07 "Hg1 mi
2:30 pm64 °FFog.7 mph83%30.07 "Hg1 mi
2:00 pm64 °FFog.7 mph83%30.09 "Hg1 mi
1:30 pm64 °FFog.10 mph83%30.09 "Hg1 mi
1:00 pm63 °FFog.10 mph88%30.09 "Hg1 mi
12:30 pm63 °FFog.9 mph94%30.12 "Hg1 mi
11:30 am59 °FFog.8 mph100%30.15 "Hg1 mi
11:00 am57 °FFog.8 mph100%30.15 "Hg1 mi
10:30 am57 °FFog.7 mph94%30.15 "Hg0 mi
10:00 am55 °FFog.7 mph100%30.15 "Hg0 mi
9:30 am55 °FFog.7 mph94%30.15 "Hg0 mi
9:00 am55 °FFog.6 mph94%30.15 "Hg0 mi
8:30 am54 °FFog.6 mph100%30.12 "Hg0 mi
8:00 am54 °FFog.7 mph100%30.12 "Hg0 mi
7:30 am54 °FFog.6 mph100%30.09 "Hg0 mi
7:00 am54 °FFog.6 mph100%30.09 "Hg0 mi
6:30 am54 °FFog.5 mph100%30.07 "Hg0 mi
5:00 am57 °FFog.3 mph100%30.07 "Hg1 mi
4:30 am57 °FFog.6 mph100%30.07 "Hg1 mi
4:00 am57 °FFog.2 mph100%30.07 "Hg1 mi
3:30 am57 °FFog.2 mph100%30.07 "Hg1 mi
3:00 am57 °FFog.2 mph94%30.09 "Hg0 mi
2:30 am55 °FFog.3 mph100%30.09 "Hg0 mi
2:00 am55 °FFog.3 mph100%30.09 "Hg0 mi
1:30 am57 °FFog.3 mph100%30.09 "Hg1 mi
1:00 am57 °FFog.No wind100%30.09 "Hg1 mi
12:30 am57 °FFog.No wind100%30.09 "Hg1 mi
12:00 am57 °FFog.No wind100%30.09 "Hg1 mi
11:30 pm
Mon, Jan 30
57 °FFog.No wind94%30.09 "Hg1 mi
11:00 pm57 °FFog.No wind100%30.09 "Hg1 mi
10:30 pm57 °FFog.No wind100%30.09 "Hg1 mi
9:30 pm57 °FFog.No wind100%30.09 "Hg1 mi
9:00 pm57 °FFog.2 mph100%30.09 "Hg1 mi
8:30 pm59 °FFog.No wind94%30.09 "Hg1 mi
8:00 pm59 °FFog.3 mph100%30.09 "Hg1 mi
7:30 pm59 °FFog.No wind100%30.07 "Hg1 mi
7:00 pm59 °FFog.2 mph100%30.07 "Hg1 mi
6:30 pm61 °FFog.2 mph100%30.07 "Hg1 mi
5:30 pm63 °FFog.5 mph88%30.07 "Hg1 mi
5:00 pm63 °FFog.7 mph88%30.04 "Hg1 mi
4:30 pm63 °FFog.7 mph88%30.07 "Hg1 mi
4:00 pm63 °FFog.8 mph88%30.07 "Hg1 mi
Weather by CustomWeather, © 2023

See weather overview